sensor_id;sensor_type;location;lat;lon;timestamp;P1;durP1;ratioP1;P2;durP2;ratioP2
70929;SDS011;58588;48.102;19.682;2022-10-16T00:01:51;16.25;;;8.88;;
70929;SDS011;58588;48.102;19.682;2022-10-16T00:04:55;17.13;;;8.73;;
70929;SDS011;58588;48.102;19.682;2022-10-16T00:07:57;18.53;;;9.17;;
70929;SDS011;58588;48.102;19.682;2022-10-16T00:10:59;17.43;;;9.60;;
70929;SDS011;58588;48.102;19.682;2022-10-16T00:14:02;17.15;;;8.38;;
70929;SDS011;58588;48.102;19.682;2022-10-16T00:17:05;17.45;;;8.57;;
70929;SDS011;58588;48.102;19.682;2022-10-16T00:20:09;16.40;;;8.65;;
70929;SDS011;58588;48.102;19.682;2022-10-16T00:23:11;16.33;;;7.97;;
70929;SDS011;58588;48.102;19.682;2022-10-16T00:26:13;17.03;;;8.27;;
70929;SDS011;58588;48.102;19.682;2022-10-16T00:29:17;23.40;;;11.70;;
70929;SDS011;58588;48.102;19.682;2022-10-16T00:32:19;19.17;;;10.15;;
70929;SDS011;58588;48.102;19.682;2022-10-16T00:35:23;19.30;;;9.18;;
70929;SDS011;58588;48.102;19.682;2022-10-16T00:38:25;19.30;;;8.90;;
70929;SDS011;58588;48.102;19.682;2022-10-16T00:41:27;19.07;;;8.93;;
70929;SDS011;58588;48.102;19.682;2022-10-16T00:44:43;15.98;;;8.30;;
70929;SDS011;58588;48.102;19.682;2022-10-16T00:47:47;18.30;;;8.75;;
70929;SDS011;58588;48.102;19.682;2022-10-16T00:50:52;16.10;;;8.52;;
70929;SDS011;58588;48.102;19.682;2022-10-16T00:53:55;16.37;;;8.70;;
70929;SDS011;58588;48.102;19.682;2022-10-16T00:56:58;22.93;;;9.33;;
70929;SDS011;58588;48.102;19.682;2022-10-16T01:00:03;17.75;;;9.63;;
70929;SDS011;58588;48.102;19.682;2022-10-16T01:03:26;14.88;;;8.55;;
70929;SDS011;58588;48.102;19.682;2022-10-16T01:06:32;19.75;;;8.60;;
70929;SDS011;58588;48.102;19.682;2022-10-16T01:09:45;17.47;;;8.03;;
70929;SDS011;58588;48.102;19.682;2022-10-16T01:12:54;16.67;;;9.10;;
70929;SDS011;58588;48.102;19.682;2022-10-16T01:16:03;17.25;;;8.40;;
70929;SDS011;58588;48.102;19.682;2022-10-16T01:19:10;19.45;;;10.02;;
70929;SDS011;58588;48.102;19.682;2022-10-16T01:22:18;16.33;;;7.78;;
70929;SDS011;58588;48.102;19.682;2022-10-16T01:25:29;16.23;;;9.10;;
70929;SDS011;58588;48.102;19.682;2022-10-16T01:28:44;13.47;;;6.97;;
70929;SDS011;58588;48.102;19.682;2022-10-16T01:31:53;16.88;;;8.27;;
70929;SDS011;58588;48.102;19.682;2022-10-16T01:35:00;16.90;;;8.30;;
70929;SDS011;58588;48.102;19.682;2022-10-16T01:38:07;16.20;;;8.48;;
70929;SDS011;58588;48.102;19.682;2022-10-16T01:41:13;18.10;;;9.30;;
70929;SDS011;58588;48.102;19.682;2022-10-16T01:44:20;18.27;;;8.47;;
70929;SDS011;58588;48.102;19.682;2022-10-16T01:47:27;18.58;;;8.60;;
70929;SDS011;58588;48.102;19.682;2022-10-16T01:50:33;17.70;;;8.93;;
70929;SDS011;58588;48.102;19.682;2022-10-16T01:53:39;16.40;;;8.77;;
70929;SDS011;58588;48.102;19.682;2022-10-16T01:56:43;16.93;;;8.67;;
70929;SDS011;58588;48.102;19.682;2022-10-16T01:59:50;18.50;;;8.90;;
70929;SDS011;58588;48.102;19.682;2022-10-16T02:02:55;18.80;;;9.45;;
70929;SDS011;58588;48.102;19.682;2022-10-16T02:05:59;26.98;;;13.90;;
70929;SDS011;58588;48.102;19.682;2022-10-16T02:09:01;27.13;;;13.90;;
70929;SDS011;58588;48.102;19.682;2022-10-16T02:12:06;29.10;;;13.37;;
70929;SDS011;58588;48.102;19.682;2022-10-16T02:15:16;29.07;;;15.43;;
70929;SDS011;58588;48.102;19.682;2022-10-16T02:18:18;26.88;;;13.90;;
70929;SDS011;58588;48.102;19.682;2022-10-16T02:21:22;27.83;;;13.15;;
70929;SDS011;58588;48.102;19.682;2022-10-16T02:24:27;25.42;;;10.90;;
70929;SDS011;58588;48.102;19.682;2022-10-16T02:27:34;17.97;;;8.97;;
70929;SDS011;58588;48.102;19.682;2022-10-16T02:30:45;17.60;;;9.07;;
70929;SDS011;58588;48.102;19.682;2022-10-16T02:33:50;18.60;;;9.07;;
70929;SDS011;58588;48.102;19.682;2022-10-16T02:36:54;15.60;;;8.52;;
70929;SDS011;58588;48.102;19.682;2022-10-16T02:39:57;16.27;;;8.25;;
70929;SDS011;58588;48.102;19.682;2022-10-16T02:43:00;14.80;;;7.53;;
70929;SDS011;58588;48.102;19.682;2022-10-16T02:46:06;14.97;;;8.37;;
70929;SDS011;58588;48.102;19.682;2022-10-16T02:49:08;14.45;;;7.90;;
70929;SDS011;58588;48.102;19.682;2022-10-16T02:52:10;16.85;;;8.68;;
70929;SDS011;58588;48.102;19.682;2022-10-16T02:55:12;15.90;;;7.53;;
70929;SDS011;58588;48.102;19.682;2022-10-16T02:58:14;13.23;;;7.57;;
70929;SDS011;58588;48.102;19.682;2022-10-16T03:01:21;15.30;;;7.77;;
70929;SDS011;58588;48.102;19.682;2022-10-16T03:04:23;12.30;;;6.68;;
70929;SDS011;58588;48.102;19.682;2022-10-16T03:07:25;13.63;;;7.13;;
70929;SDS011;58588;48.102;19.682;2022-10-16T03:10:27;16.65;;;7.25;;
70929;SDS011;58588;48.102;19.682;2022-10-16T03:13:29;14.07;;;6.83;;
70929;SDS011;58588;48.102;19.682;2022-10-16T03:16:32;13.33;;;6.23;;
70929;SDS011;58588;48.102;19.682;2022-10-16T03:19:34;13.77;;;6.57;;
70929;SDS011;58588;48.102;19.682;2022-10-16T03:22:36;15.23;;;7.03;;
70929;SDS011;58588;48.102;19.682;2022-10-16T03:25:38;12.93;;;5.90;;
70929;SDS011;58588;48.102;19.682;2022-10-16T03:28:41;13.70;;;6.27;;
70929;SDS011;58588;48.102;19.682;2022-10-16T03:31:44;13.03;;;6.47;;
70929;SDS011;58588;48.102;19.682;2022-10-16T03:34:48;12.05;;;5.93;;
70929;SDS011;58588;48.102;19.682;2022-10-16T03:37:50;11.77;;;5.95;;
70929;SDS011;58588;48.102;19.682;2022-10-16T03:40:52;12.25;;;5.90;;
70929;SDS011;58588;48.102;19.682;2022-10-16T03:43:54;12.40;;;5.43;;
70929;SDS011;58588;48.102;19.682;2022-10-16T03:46:58;17.33;;;6.50;;
70929;SDS011;58588;48.102;19.682;2022-10-16T03:50:00;14.38;;;6.03;;
70929;SDS011;58588;48.102;19.682;2022-10-16T03:53:02;12.32;;;5.95;;
70929;SDS011;58588;48.102;19.682;2022-10-16T03:56:04;14.95;;;5.72;;
70929;SDS011;58588;48.102;19.682;2022-10-16T03:59:07;11.53;;;5.80;;
70929;SDS011;58588;48.102;19.682;2022-10-16T04:02:10;13.03;;;5.70;;
70929;SDS011;58588;48.102;19.682;2022-10-16T04:05:12;14.60;;;6.70;;
70929;SDS011;58588;48.102;19.682;2022-10-16T04:08:14;12.90;;;6.25;;
70929;SDS011;58588;48.102;19.682;2022-10-16T04:11:17;14.32;;;5.88;;
70929;SDS011;58588;48.102;19.682;2022-10-16T04:14:19;13.23;;;6.07;;
70929;SDS011;58588;48.102;19.682;2022-10-16T04:17:22;21.53;;;6.87;;
70929;SDS011;58588;48.102;19.682;2022-10-16T04:20:24;12.15;;;5.85;;
70929;SDS011;58588;48.102;19.682;2022-10-16T04:23:26;13.88;;;6.60;;
70929;SDS011;58588;48.102;19.682;2022-10-16T04:26:28;13.48;;;6.15;;
70929;SDS011;58588;48.102;19.682;2022-10-16T04:29:30;13.23;;;5.93;;
70929;SDS011;58588;48.102;19.682;2022-10-16T04:32:34;12.53;;;6.13;;
70929;SDS011;58588;48.102;19.682;2022-10-16T04:35:36;15.18;;;7.05;;
70929;SDS011;58588;48.102;19.682;2022-10-16T04:38:38;24.58;;;9.23;;
70929;SDS011;58588;48.102;19.682;2022-10-16T04:41:40;19.10;;;8.00;;
70929;SDS011;58588;48.102;19.682;2022-10-16T04:44:42;21.53;;;9.63;;
70929;SDS011;58588;48.102;19.682;2022-10-16T04:47:46;16.37;;;6.90;;
70929;SDS011;58588;48.102;19.682;2022-10-16T04:50:48;15.10;;;6.32;;
70929;SDS011;58588;48.102;19.682;2022-10-16T04:53:50;13.75;;;6.82;;
70929;SDS011;58588;48.102;19.682;2022-10-16T04:56:51;19.35;;;7.57;;
70929;SDS011;58588;48.102;19.682;2022-10-16T04:59:53;18.57;;;8.50;;
70929;SDS011;58588;48.102;19.682;2022-10-16T05:02:57;24.53;;;9.93;;
70929;SDS011;58588;48.102;19.682;2022-10-16T05:06:00;21.25;;;7.80;;
70929;SDS011;58588;48.102;19.682;2022-10-16T05:09:04;13.07;;;6.50;;
70929;SDS011;58588;48.102;19.682;2022-10-16T05:12:06;17.75;;;8.43;;
70929;SDS011;58588;48.102;19.682;2022-10-16T05:15:08;21.07;;;9.13;;
70929;SDS011;58588;48.102;19.682;2022-10-16T05:18:13;15.07;;;6.40;;
70929;SDS011;58588;48.102;19.682;2022-10-16T05:21:15;16.70;;;8.52;;
70929;SDS011;58588;48.102;19.682;2022-10-16T05:24:18;21.73;;;10.98;;
70929;SDS011;58588;48.102;19.682;2022-10-16T05:27:21;19.83;;;9.23;;
70929;SDS011;58588;48.102;19.682;2022-10-16T05:30:23;16.13;;;7.90;;
70929;SDS011;58588;48.102;19.682;2022-10-16T05:33:26;18.87;;;8.73;;
70929;SDS011;58588;48.102;19.682;2022-10-16T05:36:28;20.17;;;9.07;;
70929;SDS011;58588;48.102;19.682;2022-10-16T05:39:30;16.40;;;7.75;;
70929;SDS011;58588;48.102;19.682;2022-10-16T05:42:32;16.50;;;8.40;;
70929;SDS011;58588;48.102;19.682;2022-10-16T05:45:34;18.80;;;8.07;;
70929;SDS011;58588;48.102;19.682;2022-10-16T05:48:38;19.40;;;7.77;;
70929;SDS011;58588;48.102;19.682;2022-10-16T05:51:40;18.40;;;8.95;;
70929;SDS011;58588;48.102;19.682;2022-10-16T05:54:42;22.67;;;10.00;;
70929;SDS011;58588;48.102;19.682;2022-10-16T05:57:44;17.67;;;8.35;;
70929;SDS011;58588;48.102;19.682;2022-10-16T06:00:52;18.27;;;8.50;;
70929;SDS011;58588;48.102;19.682;2022-10-16T06:03:56;16.40;;;7.77;;
70929;SDS011;58588;48.102;19.682;2022-10-16T06:06:59;15.68;;;7.20;;
70929;SDS011;58588;48.102;19.682;2022-10-16T06:10:02;16.50;;;7.18;;
70929;SDS011;58588;48.102;19.682;2022-10-16T06:13:04;14.38;;;6.80;;
70929;SDS011;58588;48.102;19.682;2022-10-16T06:16:07;14.70;;;7.20;;
70929;SDS011;58588;48.102;19.682;2022-10-16T06:19:11;17.57;;;7.40;;
70929;SDS011;58588;48.102;19.682;2022-10-16T06:22:13;17.08;;;8.25;;
70929;SDS011;58588;48.102;19.682;2022-10-16T06:25:16;19.15;;;8.88;;
70929;SDS011;58588;48.102;19.682;2022-10-16T06:28:18;20.33;;;9.50;;
70929;SDS011;58588;48.102;19.682;2022-10-16T06:31:20;18.87;;;9.77;;
70929;SDS011;58588;48.102;19.682;2022-10-16T06:34:24;18.90;;;8.60;;
70929;SDS011;58588;48.102;19.682;2022-10-16T06:37:26;23.15;;;10.63;;
70929;SDS011;58588;48.102;19.682;2022-10-16T06:40:28;37.13;;;16.40;;
70929;SDS011;58588;48.102;19.682;2022-10-16T06:43:30;26.10;;;12.40;;
70929;SDS011;58588;48.102;19.682;2022-10-16T06:46:35;54.13;;;25.97;;
70929;SDS011;58588;48.102;19.682;2022-10-16T06:49:38;41.20;;;20.77;;
70929;SDS011;58588;48.102;19.682;2022-10-16T06:52:40;36.63;;;16.50;;
70929;SDS011;58588;48.102;19.682;2022-10-16T06:55:42;26.33;;;12.00;;
70929;SDS011;58588;48.102;19.682;2022-10-16T06:58:44;19.02;;;10.32;;
70929;SDS011;58588;48.102;19.682;2022-10-16T07:01:47;22.50;;;10.10;;
70929;SDS011;58588;48.102;19.682;2022-10-16T07:04:52;19.33;;;9.57;;
70929;SDS011;58588;48.102;19.682;2022-10-16T07:07:54;19.83;;;9.10;;
70929;SDS011;58588;48.102;19.682;2022-10-16T07:11:00;18.52;;;9.32;;
70929;SDS011;58588;48.102;19.682;2022-10-16T07:14:03;19.83;;;10.63;;
70929;SDS011;58588;48.102;19.682;2022-10-16T07:17:05;16.40;;;9.17;;
70929;SDS011;58588;48.102;19.682;2022-10-16T07:20:10;18.90;;;9.27;;
70929;SDS011;58588;48.102;19.682;2022-10-16T07:23:12;15.88;;;8.85;;
70929;SDS011;58588;48.102;19.682;2022-10-16T07:26:14;14.55;;;7.72;;
70929;SDS011;58588;48.102;19.682;2022-10-16T07:29:18;13.68;;;6.80;;
70929;SDS011;58588;48.102;19.682;2022-10-16T07:32:21;12.77;;;6.47;;
70929;SDS011;58588;48.102;19.682;2022-10-16T07:35:27;14.47;;;6.40;;
70929;SDS011;58588;48.102;19.682;2022-10-16T07:38:29;12.50;;;6.70;;
70929;SDS011;58588;48.102;19.682;2022-10-16T07:41:31;13.73;;;6.78;;
70929;SDS011;58588;48.102;19.682;2022-10-16T07:44:36;16.88;;;6.45;;
70929;SDS011;58588;48.102;19.682;2022-10-16T07:47:38;12.50;;;5.77;;
70929;SDS011;58588;48.102;19.682;2022-10-16T07:50:42;13.00;;;5.87;;
70929;SDS011;58588;48.102;19.682;2022-10-16T07:53:45;17.67;;;6.43;;
70929;SDS011;58588;48.102;19.682;2022-10-16T07:56:47;15.93;;;6.70;;
70929;SDS011;58588;48.102;19.682;2022-10-16T07:59:50;13.55;;;6.03;;
70929;SDS011;58588;48.102;19.682;2022-10-16T08:02:52;13.33;;;5.90;;
70929;SDS011;58588;48.102;19.682;2022-10-16T08:05:56;13.70;;;5.77;;
70929;SDS011;58588;48.102;19.682;2022-10-16T08:08:58;18.15;;;7.78;;
70929;SDS011;58588;48.102;19.682;2022-10-16T08:12:00;12.60;;;5.50;;
70929;SDS011;58588;48.102;19.682;2022-10-16T08:15:04;10.52;;;5.07;;
70929;SDS011;58588;48.102;19.682;2022-10-16T08:18:07;12.97;;;6.00;;
70929;SDS011;58588;48.102;19.682;2022-10-16T08:21:13;15.83;;;5.80;;
70929;SDS011;58588;48.102;19.682;2022-10-16T08:24:17;13.65;;;5.50;;
70929;SDS011;58588;48.102;19.682;2022-10-16T08:27:21;13.60;;;5.28;;
70929;SDS011;58588;48.102;19.682;2022-10-16T08:30:23;11.55;;;5.10;;
70929;SDS011;58588;48.102;19.682;2022-10-16T08:33:25;19.02;;;5.28;;
70929;SDS011;58588;48.102;19.682;2022-10-16T08:36:29;14.13;;;5.27;;
70929;SDS011;58588;48.102;19.682;2022-10-16T08:39:31;11.27;;;5.22;;
70929;SDS011;58588;48.102;19.682;2022-10-16T08:42:37;10.27;;;5.35;;
70929;SDS011;58588;48.102;19.682;2022-10-16T08:45:52;14.23;;;5.30;;
70929;SDS011;58588;48.102;19.682;2022-10-16T08:49:08;11.13;;;5.07;;
70929;SDS011;58588;48.102;19.682;2022-10-16T08:52:15;12.80;;;4.73;;
70929;SDS011;58588;48.102;19.682;2022-10-16T08:55:21;14.50;;;5.60;;
70929;SDS011;58588;48.102;19.682;2022-10-16T08:58:32;16.67;;;8.38;;
70929;SDS011;58588;48.102;19.682;2022-10-16T09:01:35;16.33;;;5.88;;
70929;SDS011;58588;48.102;19.682;2022-10-16T09:04:48;13.50;;;5.68;;
70929;SDS011;58588;48.102;19.682;2022-10-16T09:08:08;17.23;;;7.40;;
70929;SDS011;58588;48.102;19.682;2022-10-16T09:11:21;20.10;;;7.78;;
70929;SDS011;58588;48.102;19.682;2022-10-16T09:14:35;15.45;;;5.60;;
70929;SDS011;58588;48.102;19.682;2022-10-16T09:17:48;11.02;;;5.15;;
70929;SDS011;58588;48.102;19.682;2022-10-16T09:20:57;10.75;;;5.15;;
70929;SDS011;58588;48.102;19.682;2022-10-16T09:24:10;10.07;;;4.80;;
70929;SDS011;58588;48.102;19.682;2022-10-16T09:27:15;10.52;;;4.55;;
70929;SDS011;58588;48.102;19.682;2022-10-16T09:30:18;12.13;;;4.93;;
70929;SDS011;58588;48.102;19.682;2022-10-16T09:33:23;11.00;;;5.60;;
70929;SDS011;58588;48.102;19.682;2022-10-16T09:36:30;10.02;;;4.90;;
70929;SDS011;58588;48.102;19.682;2022-10-16T09:39:48;10.33;;;5.53;;
70929;SDS011;58588;48.102;19.682;2022-10-16T09:42:52;11.23;;;5.10;;
70929;SDS011;58588;48.102;19.682;2022-10-16T09:46:03;11.07;;;4.90;;
70929;SDS011;58588;48.102;19.682;2022-10-16T09:49:18;11.57;;;4.90;;
70929;SDS011;58588;48.102;19.682;2022-10-16T09:52:23;10.48;;;4.95;;
70929;SDS011;58588;48.102;19.682;2022-10-16T09:55:27;12.70;;;5.27;;
70929;SDS011;58588;48.102;19.682;2022-10-16T09:58:29;10.15;;;4.55;;
70929;SDS011;58588;48.102;19.682;2022-10-16T10:01:35;11.88;;;5.00;;
70929;SDS011;58588;48.102;19.682;2022-10-16T10:04:40;11.85;;;5.00;;
70929;SDS011;58588;48.102;19.682;2022-10-16T10:07:52;9.35;;;5.03;;
70929;SDS011;58588;48.102;19.682;2022-10-16T10:10:58;11.87;;;4.90;;
70929;SDS011;58588;48.102;19.682;2022-10-16T10:14:03;10.80;;;5.00;;
70929;SDS011;58588;48.102;19.682;2022-10-16T10:17:11;9.32;;;4.55;;
70929;SDS011;58588;48.102;19.682;2022-10-16T10:20:18;9.73;;;4.50;;
70929;SDS011;58588;48.102;19.682;2022-10-16T10:23:25;10.32;;;4.50;;
70929;SDS011;58588;48.102;19.682;2022-10-16T10:26:30;11.43;;;4.60;;
70929;SDS011;58588;48.102;19.682;2022-10-16T10:29:37;9.50;;;4.35;;
70929;SDS011;58588;48.102;19.682;2022-10-16T10:32:56;11.52;;;4.57;;
70929;SDS011;58588;48.102;19.682;2022-10-16T10:36:22;11.82;;;4.70;;
70929;SDS011;58588;48.102;19.682;2022-10-16T10:39:32;10.82;;;4.50;;
70929;SDS011;58588;48.102;19.682;2022-10-16T10:42:41;9.10;;;4.50;;
70929;SDS011;58588;48.102;19.682;2022-10-16T10:45:50;12.38;;;4.72;;
70929;SDS011;58588;48.102;19.682;2022-10-16T10:49:03;10.15;;;4.57;;
70929;SDS011;58588;48.102;19.682;2022-10-16T10:52:32;10.98;;;4.95;;
70929;SDS011;58588;48.102;19.682;2022-10-16T10:55:43;11.55;;;5.03;;
70929;SDS011;58588;48.102;19.682;2022-10-16T10:58:56;12.47;;;4.50;;
70929;SDS011;58588;48.102;19.682;2022-10-16T11:02:16;13.02;;;5.00;;
70929;SDS011;58588;48.102;19.682;2022-10-16T11:05:36;11.90;;;4.60;;
70929;SDS011;58588;48.102;19.682;2022-10-16T11:08:43;8.60;;;4.38;;
70929;SDS011;58588;48.102;19.682;2022-10-16T11:11:51;9.85;;;4.35;;
70929;SDS011;58588;48.102;19.682;2022-10-16T11:15:00;9.37;;;4.00;;
70929;SDS011;58588;48.102;19.682;2022-10-16T11:18:06;10.60;;;4.20;;
70929;SDS011;58588;48.102;19.682;2022-10-16T11:21:13;10.77;;;4.50;;
70929;SDS011;58588;48.102;19.682;2022-10-16T11:24:19;13.98;;;4.55;;
70929;SDS011;58588;48.102;19.682;2022-10-16T11:27:27;12.63;;;4.20;;
70929;SDS011;58588;48.102;19.682;2022-10-16T11:30:40;10.00;;;5.00;;
70929;SDS011;58588;48.102;19.682;2022-10-16T11:33:47;9.52;;;4.10;;
70929;SDS011;58588;48.102;19.682;2022-10-16T11:36:56;10.73;;;4.40;;
70929;SDS011;58588;48.102;19.682;2022-10-16T11:40:05;11.63;;;3.97;;
70929;SDS011;58588;48.102;19.682;2022-10-16T11:43:21;12.50;;;4.50;;
70929;SDS011;58588;48.102;19.682;2022-10-16T11:46:28;13.20;;;6.57;;
70929;SDS011;58588;48.102;19.682;2022-10-16T11:49:34;14.05;;;6.85;;
70929;SDS011;58588;48.102;19.682;2022-10-16T11:52:40;11.13;;;5.03;;
70929;SDS011;58588;48.102;19.682;2022-10-16T11:55:50;12.07;;;5.10;;
70929;SDS011;58588;48.102;19.682;2022-10-16T11:58:53;9.75;;;4.65;;
70929;SDS011;58588;48.102;19.682;2022-10-16T12:05:38;8.65;;;4.18;;
70929;SDS011;58588;48.102;19.682;2022-10-16T12:08:54;8.23;;;4.35;;
70929;SDS011;58588;48.102;19.682;2022-10-16T12:11:56;10.07;;;4.28;;
70929;SDS011;58588;48.102;19.682;2022-10-16T12:14:59;8.38;;;3.92;;
70929;SDS011;58588;48.102;19.682;2022-10-16T12:18:03;12.03;;;4.13;;
70929;SDS011;58588;48.102;19.682;2022-10-16T12:21:09;11.05;;;4.25;;
70929;SDS011;58588;48.102;19.682;2022-10-16T12:24:21;17.48;;;4.40;;
70929;SDS011;58588;48.102;19.682;2022-10-16T12:27:33;8.50;;;3.78;;
70929;SDS011;58588;48.102;19.682;2022-10-16T12:30:36;9.65;;;3.78;;
70929;SDS011;58588;48.102;19.682;2022-10-16T12:33:40;8.53;;;3.27;;
70929;SDS011;58588;48.102;19.682;2022-10-16T12:36:53;8.35;;;3.67;;
70929;SDS011;58588;48.102;19.682;2022-10-16T12:39:56;7.50;;;3.20;;
70929;SDS011;58588;48.102;19.682;2022-10-16T12:43:10;12.10;;;4.22;;
70929;SDS011;58588;48.102;19.682;2022-10-16T12:46:24;10.45;;;3.53;;
70929;SDS011;58588;48.102;19.682;2022-10-16T12:49:37;9.43;;;3.50;;
70929;SDS011;58588;48.102;19.682;2022-10-16T12:52:50;9.02;;;3.65;;
70929;SDS011;58588;48.102;19.682;2022-10-16T12:55:54;8.77;;;3.40;;
70929;SDS011;58588;48.102;19.682;2022-10-16T12:59:08;8.57;;;3.53;;
70929;SDS011;58588;48.102;19.682;2022-10-16T13:02:23;7.65;;;3.72;;
70929;SDS011;58588;48.102;19.682;2022-10-16T13:05:48;7.83;;;3.57;;
70929;SDS011;58588;48.102;19.682;2022-10-16T13:09:17;9.82;;;3.53;;
70929;SDS011;58588;48.102;19.682;2022-10-16T13:12:36;8.43;;;3.83;;
70929;SDS011;58588;48.102;19.682;2022-10-16T13:16:02;9.68;;;3.92;;
70929;SDS011;58588;48.102;19.682;2022-10-16T13:19:16;9.18;;;3.92;;
70929;SDS011;58588;48.102;19.682;2022-10-16T13:22:29;11.70;;;4.50;;
70929;SDS011;58588;48.102;19.682;2022-10-16T13:25:40;11.60;;;4.13;;
70929;SDS011;58588;48.102;19.682;2022-10-16T13:28:53;8.93;;;4.00;;
70929;SDS011;58588;48.102;19.682;2022-10-16T13:32:00;8.75;;;3.75;;
70929;SDS011;58588;48.102;19.682;2022-10-16T13:35:18;12.63;;;4.88;;
70929;SDS011;58588;48.102;19.682;2022-10-16T13:38:24;9.13;;;4.23;;
70929;SDS011;58588;48.102;19.682;2022-10-16T13:41:27;9.65;;;4.63;;
70929;SDS011;58588;48.102;19.682;2022-10-16T13:44:30;13.10;;;4.57;;
70929;SDS011;58588;48.102;19.682;2022-10-16T13:47:38;9.60;;;3.80;;
70929;SDS011;58588;48.102;19.682;2022-10-16T13:50:40;9.77;;;4.20;;
70929;SDS011;58588;48.102;19.682;2022-10-16T13:53:43;9.23;;;4.23;;
70929;SDS011;58588;48.102;19.682;2022-10-16T13:56:47;8.88;;;4.50;;
70929;SDS011;58588;48.102;19.682;2022-10-16T13:59:49;10.65;;;4.00;;
70929;SDS011;58588;48.102;19.682;2022-10-16T14:02:52;9.45;;;4.05;;
70929;SDS011;58588;48.102;19.682;2022-10-16T14:05:57;8.60;;;4.25;;
70929;SDS011;58588;48.102;19.682;2022-10-16T14:09:04;10.57;;;4.20;;
70929;SDS011;58588;48.102;19.682;2022-10-16T14:12:09;12.75;;;4.35;;
70929;SDS011;58588;48.102;19.682;2022-10-16T14:15:15;9.27;;;4.18;;
70929;SDS011;58588;48.102;19.682;2022-10-16T14:18:19;11.35;;;4.13;;
70929;SDS011;58588;48.102;19.682;2022-10-16T14:21:23;11.43;;;4.18;;
70929;SDS011;58588;48.102;19.682;2022-10-16T14:24:32;8.03;;;3.80;;
70929;SDS011;58588;48.102;19.682;2022-10-16T14:27:35;10.05;;;3.92;;
70929;SDS011;58588;48.102;19.682;2022-10-16T14:30:48;8.95;;;4.20;;
70929;SDS011;58588;48.102;19.682;2022-10-16T14:33:51;7.95;;;3.80;;
70929;SDS011;58588;48.102;19.682;2022-10-16T14:36:54;10.57;;;3.92;;
70929;SDS011;58588;48.102;19.682;2022-10-16T14:39:58;9.07;;;3.97;;
70929;SDS011;58588;48.102;19.682;2022-10-16T14:43:02;11.75;;;4.00;;
70929;SDS011;58588;48.102;19.682;2022-10-16T14:46:06;10.63;;;4.32;;
70929;SDS011;58588;48.102;19.682;2022-10-16T14:49:16;11.13;;;5.55;;
70929;SDS011;58588;48.102;19.682;2022-10-16T14:52:20;10.70;;;5.25;;
70929;SDS011;58588;48.102;19.682;2022-10-16T14:55:24;13.17;;;7.37;;
70929;SDS011;58588;48.102;19.682;2022-10-16T14:58:26;13.98;;;6.85;;
70929;SDS011;58588;48.102;19.682;2022-10-16T15:01:28;19.10;;;8.20;;
70929;SDS011;58588;48.102;19.682;2022-10-16T15:04:30;21.42;;;11.80;;
70929;SDS011;58588;48.102;19.682;2022-10-16T15:07:32;18.95;;;8.02;;
70929;SDS011;58588;48.102;19.682;2022-10-16T15:10:38;12.80;;;5.43;;
70929;SDS011;58588;48.102;19.682;2022-10-16T15:13:42;12.10;;;5.22;;
70929;SDS011;58588;48.102;19.682;2022-10-16T15:16:43;13.80;;;5.25;;
70929;SDS011;58588;48.102;19.682;2022-10-16T15:19:46;12.18;;;4.97;;
70929;SDS011;58588;48.102;19.682;2022-10-16T15:22:48;20.77;;;10.75;;
70929;SDS011;58588;48.102;19.682;2022-10-16T15:25:51;21.23;;;9.53;;
70929;SDS011;58588;48.102;19.682;2022-10-16T15:28:54;25.20;;;11.15;;
70929;SDS011;58588;48.102;19.682;2022-10-16T15:31:57;24.48;;;11.13;;
70929;SDS011;58588;48.102;19.682;2022-10-16T15:34:59;26.08;;;11.85;;
70929;SDS011;58588;48.102;19.682;2022-10-16T15:38:01;16.88;;;7.65;;
70929;SDS011;58588;48.102;19.682;2022-10-16T15:41:04;16.47;;;8.03;;
70929;SDS011;58588;48.102;19.682;2022-10-16T15:44:06;15.13;;;6.97;;
70929;SDS011;58588;48.102;19.682;2022-10-16T15:47:09;11.20;;;5.32;;
70929;SDS011;58588;48.102;19.682;2022-10-16T15:50:11;20.15;;;10.77;;
70929;SDS011;58588;48.102;19.682;2022-10-16T15:53:14;18.00;;;10.63;;
70929;SDS011;58588;48.102;19.682;2022-10-16T15:56:17;15.20;;;7.47;;
70929;SDS011;58588;48.102;19.682;2022-10-16T15:59:19;23.20;;;12.15;;
70929;SDS011;58588;48.102;19.682;2022-10-16T16:02:21;29.77;;;15.25;;
70929;SDS011;58588;48.102;19.682;2022-10-16T16:05:23;40.50;;;20.08;;
70929;SDS011;58588;48.102;19.682;2022-10-16T16:08:25;35.40;;;20.08;;
70929;SDS011;58588;48.102;19.682;2022-10-16T16:11:29;31.30;;;19.27;;
70929;SDS011;58588;48.102;19.682;2022-10-16T16:14:32;34.45;;;19.50;;
70929;SDS011;58588;48.102;19.682;2022-10-16T16:17:34;28.70;;;17.17;;
70929;SDS011;58588;48.102;19.682;2022-10-16T16:20:37;23.92;;;12.50;;
70929;SDS011;58588;48.102;19.682;2022-10-16T16:23:42;21.83;;;11.57;;
70929;SDS011;58588;48.102;19.682;2022-10-16T16:26:45;21.40;;;12.43;;
70929;SDS011;58588;48.102;19.682;2022-10-16T16:29:47;27.02;;;14.85;;
70929;SDS011;58588;48.102;19.682;2022-10-16T16:32:49;23.13;;;11.90;;
70929;SDS011;58588;48.102;19.682;2022-10-16T16:35:55;22.75;;;12.60;;
70929;SDS011;58588;48.102;19.682;2022-10-16T16:38:58;23.57;;;12.33;;
70929;SDS011;58588;48.102;19.682;2022-10-16T16:42:01;20.67;;;8.60;;
70929;SDS011;58588;48.102;19.682;2022-10-16T16:45:04;20.38;;;9.75;;
70929;SDS011;58588;48.102;19.682;2022-10-16T16:48:07;19.17;;;9.60;;
70929;SDS011;58588;48.102;19.682;2022-10-16T16:51:10;24.27;;;11.45;;
70929;SDS011;58588;48.102;19.682;2022-10-16T16:54:15;24.50;;;11.10;;
70929;SDS011;58588;48.102;19.682;2022-10-16T16:57:19;20.30;;;10.37;;
70929;SDS011;58588;48.102;19.682;2022-10-16T17:00:22;20.48;;;10.52;;
70929;SDS011;58588;48.102;19.682;2022-10-16T17:03:24;32.85;;;19.40;;
70929;SDS011;58588;48.102;19.682;2022-10-16T17:06:27;53.03;;;27.30;;
70929;SDS011;58588;48.102;19.682;2022-10-16T17:09:31;38.73;;;21.13;;
70929;SDS011;58588;48.102;19.682;2022-10-16T17:12:35;132.63;;;70.57;;
70929;SDS011;58588;48.102;19.682;2022-10-16T17:15:41;62.00;;;30.95;;
70929;SDS011;58588;48.102;19.682;2022-10-16T17:18:47;41.42;;;22.23;;
70929;SDS011;58588;48.102;19.682;2022-10-16T17:21:49;28.60;;;13.80;;
70929;SDS011;58588;48.102;19.682;2022-10-16T17:24:52;39.90;;;19.17;;
70929;SDS011;58588;48.102;19.682;2022-10-16T17:27:56;49.80;;;26.13;;
70929;SDS011;58588;48.102;19.682;2022-10-16T17:31:06;107.47;;;48.20;;
70929;SDS011;58588;48.102;19.682;2022-10-16T17:34:09;101.68;;;44.60;;
70929;SDS011;58588;48.102;19.682;2022-10-16T17:37:12;37.63;;;19.65;;
70929;SDS011;58588;48.102;19.682;2022-10-16T17:40:15;32.27;;;13.47;;
70929;SDS011;58588;48.102;19.682;2022-10-16T17:43:19;37.77;;;22.60;;
70929;SDS011;58588;48.102;19.682;2022-10-16T17:46:21;47.08;;;24.15;;
70929;SDS011;58588;48.102;19.682;2022-10-16T17:49:25;44.58;;;20.55;;
70929;SDS011;58588;48.102;19.682;2022-10-16T17:52:30;49.75;;;28.00;;
70929;SDS011;58588;48.102;19.682;2022-10-16T17:55:36;49.97;;;25.40;;
70929;SDS011;58588;48.102;19.682;2022-10-16T17:58:47;34.80;;;16.67;;
70929;SDS011;58588;48.102;19.682;2022-10-16T18:01:52;39.45;;;18.70;;
70929;SDS011;58588;48.102;19.682;2022-10-16T18:04:57;45.75;;;21.77;;
70929;SDS011;58588;48.102;19.682;2022-10-16T18:08:05;64.45;;;28.48;;